createdAt,value
2023-05-01T00:01:01.701Z,8.48
2023-05-01T00:03:28.540Z,8.38
2023-05-01T00:06:02.718Z,7.55
2023-05-01T00:08:29.125Z,7.70
2023-05-01T00:10:55.707Z,8.13
2023-05-01T00:13:22.423Z,8.40
2023-05-01T00:15:49.282Z,7.43
2023-05-01T00:18:16.238Z,7.57
2023-05-01T00:20:42.733Z,7.63
2023-05-01T00:23:09.438Z,7.15
2023-05-01T00:25:35.802Z,7.70
2023-05-01T00:28:02.314Z,7.10
2023-05-01T00:30:28.764Z,6.82
2023-05-01T00:32:55.212Z,6.70
2023-05-01T00:35:21.642Z,6.72
2023-05-01T00:37:48.289Z,6.93
2023-05-01T00:40:14.918Z,6.78
2023-05-01T00:42:41.441Z,6.05
2023-05-01T00:45:08.410Z,7.30
2023-05-01T00:47:38.059Z,6.25
2023-05-01T00:50:05.457Z,6.60
2023-05-01T00:52:31.959Z,6.10
2023-05-01T00:55:00.315Z,6.75
2023-05-01T00:57:27.396Z,6.57
2023-05-01T00:59:54.221Z,6.60
2023-05-01T01:02:20.898Z,7.57
2023-05-01T01:04:48.190Z,7.07
2023-05-01T01:07:36.886Z,7.30
2023-05-01T01:10:12.420Z,7.15
2023-05-01T01:12:58.954Z,6.78
2023-05-01T01:16:19.255Z,7.10
2023-05-01T01:18:56.419Z,8.70
2023-05-01T01:21:33.505Z,7.47
2023-05-01T01:24:26.920Z,7.20
2023-05-01T01:27:16.346Z,6.75
2023-05-01T01:30:07.648Z,7.03
2023-05-01T01:33:19.708Z,7.80
2023-05-01T01:35:54.670Z,7.32
2023-05-01T01:38:24.963Z,7.50
2023-05-01T01:40:58.707Z,6.60
2023-05-01T01:43:27.084Z,7.63
2023-05-01T01:46:00.340Z,7.50
2023-05-01T01:48:33.373Z,7.30
2023-05-01T01:51:01.202Z,6.57
2023-05-01T01:53:31.070Z,7.25
2023-05-01T01:56:01.317Z,7.57
2023-05-01T01:58:30.542Z,7.88
2023-05-01T02:00:58.994Z,7.38
2023-05-01T02:03:26.399Z,7.57
2023-05-01T02:05:54.856Z,7.50
2023-05-01T02:08:23.457Z,8.40
2023-05-01T02:10:50.870Z,8.82
2023-05-01T02:13:20.512Z,9.43
2023-05-01T02:15:48.561Z,8.50
2023-05-01T02:18:15.959Z,8.38
2023-05-01T02:20:42.994Z,8.75
2023-05-01T02:23:10.339Z,8.75
2023-05-01T02:25:39.276Z,9.13
2023-05-01T02:28:12.670Z,8.50
2023-05-01T02:30:39.703Z,8.65
2023-05-01T02:33:07.847Z,8.80
2023-05-01T02:35:39.715Z,8.75
2023-05-01T02:38:06.535Z,8.57
2023-05-01T02:40:34.551Z,7.72
2023-05-01T02:43:03.738Z,8.55
2023-05-01T02:45:31.784Z,8.02
2023-05-01T02:47:59.655Z,7.82
2023-05-01T02:50:27.084Z,7.75
2023-05-01T02:52:54.120Z,7.80
2023-05-01T02:55:20.882Z,7.53
2023-05-01T02:57:47.624Z,7.13
2023-05-01T03:00:14.334Z,6.90
2023-05-01T03:02:41.460Z,7.45
2023-05-01T03:05:08.258Z,6.95
2023-05-01T03:07:35.069Z,7.43
2023-05-01T03:10:05.475Z,6.68
2023-05-01T03:12:32.170Z,6.57
2023-05-01T03:14:58.766Z,7.03
2023-05-01T03:17:25.904Z,7.50
2023-05-01T03:19:52.424Z,8.18
2023-05-01T03:22:18.912Z,7.45
2023-05-01T03:24:45.326Z,7.53
2023-05-01T03:27:11.725Z,7.97
2023-05-01T03:29:38.164Z,7.85
2023-05-01T03:32:05.657Z,6.95
2023-05-01T03:34:32.304Z,7.68
2023-05-01T03:36:58.711Z,7.38
2023-05-01T03:39:25.164Z,7.97
2023-05-01T03:41:51.581Z,8.27
2023-05-01T03:44:18.020Z,8.15
2023-05-01T03:46:44.648Z,8.35
2023-05-01T03:49:11.136Z,7.70
2023-05-01T03:51:37.573Z,7.63
2023-05-01T03:54:04.988Z,8.07
2023-05-01T03:56:31.496Z,8.48
2023-05-01T03:59:00.067Z,8.13
2023-05-01T04:01:26.478Z,7.95
2023-05-01T04:03:53.210Z,8.50
2023-05-01T04:06:19.994Z,7.55
2023-05-01T04:08:46.351Z,8.32
2023-05-01T04:11:12.758Z,8.43
2023-05-01T04:13:39.420Z,7.78
2023-05-01T04:16:06.350Z,7.57
2023-05-01T04:18:32.810Z,7.55
2023-05-01T04:20:59.221Z,8.50
2023-05-01T04:23:25.661Z,9.60
2023-05-01T04:25:52.154Z,8.07
2023-05-01T04:28:18.841Z,7.45
2023-05-01T04:30:45.910Z,8.25
2023-05-01T04:33:12.369Z,8.13
2023-05-01T04:35:39.641Z,7.72
2023-05-01T04:38:07.431Z,7.70
2023-05-01T04:40:34.258Z,8.35
2023-05-01T04:43:00.848Z,7.90
2023-05-01T04:45:27.599Z,8.18
2023-05-01T04:47:54.028Z,8.10
2023-05-01T04:50:20.552Z,7.78
2023-05-01T04:52:47.299Z,8.52
2023-05-01T04:55:15.459Z,8.13
2023-05-01T04:57:42.309Z,8.38
2023-05-01T05:00:09.287Z,7.97
2023-05-01T05:02:35.959Z,7.30
2023-05-01T05:05:02.464Z,7.10
2023-05-01T05:07:28.969Z,7.78
2023-05-01T05:09:55.843Z,7.22
2023-05-01T05:12:22.471Z,7.68
2023-05-01T05:14:49.075Z,7.78
2023-05-01T05:17:15.941Z,7.55
2023-05-01T05:19:42.420Z,7.65
2023-05-01T05:22:09.138Z,7.30
2023-05-01T05:24:35.657Z,7.40
2023-05-01T05:27:02.079Z,7.50
2023-05-01T05:29:28.713Z,7.60
2023-05-01T05:31:55.184Z,8.68
2023-05-01T05:34:21.630Z,7.93
2023-05-01T05:36:48.015Z,6.97
2023-05-01T05:39:14.489Z,8.15
2023-05-01T05:41:41.434Z,7.82
2023-05-01T05:44:07.970Z,7.65
2023-05-01T05:46:34.690Z,6.38
2023-05-01T05:49:01.165Z,6.45
2023-05-01T05:51:27.647Z,7.57
2023-05-01T05:53:54.164Z,8.13
2023-05-01T05:56:20.520Z,8.02
2023-05-01T05:58:47.377Z,8.60
2023-05-01T06:01:13.809Z,8.13
2023-05-01T06:03:40.275Z,7.75
2023-05-01T06:06:06.867Z,7.20
2023-05-01T06:08:33.340Z,7.72
2023-05-01T06:10:59.732Z,7.35
2023-05-01T06:13:26.170Z,7.38
2023-05-01T06:15:52.736Z,6.80
2023-05-01T06:18:19.245Z,7.97
2023-05-01T06:20:46.093Z,7.75
2023-05-01T06:23:12.483Z,8.23
2023-05-01T06:25:39.008Z,8.48
2023-05-01T06:28:05.521Z,8.10
2023-05-01T06:30:31.950Z,9.00
2023-05-01T06:32:58.617Z,8.68
2023-05-01T06:35:25.083Z,8.20
2023-05-01T06:37:51.444Z,8.57
2023-05-01T06:40:18.109Z,8.00
2023-05-01T06:42:45.141Z,9.45
2023-05-01T06:45:11.566Z,8.68
2023-05-01T06:47:38.325Z,8.90
2023-05-01T06:50:05.927Z,9.60
2023-05-01T06:52:32.491Z,8.65
2023-05-01T06:54:58.950Z,8.48
2023-05-01T06:57:25.484Z,8.25
2023-05-01T06:59:51.868Z,8.43
2023-05-01T07:02:18.393Z,9.82
2023-05-01T07:04:44.811Z,8.98
2023-05-01T07:07:11.221Z,9.13
2023-05-01T07:09:38.121Z,9.75
2023-05-01T07:12:05.927Z,9.13
2023-05-01T07:14:32.992Z,8.40
2023-05-01T07:16:59.745Z,8.65
2023-05-01T07:19:26.176Z,8.88
2023-05-01T07:21:52.587Z,8.00
2023-05-01T07:24:18.923Z,7.93
2023-05-01T07:26:45.323Z,7.72
2023-05-01T07:29:11.907Z,7.93
2023-05-01T07:31:38.482Z,8.32
2023-05-01T07:34:05.116Z,8.18
2023-05-01T07:36:31.439Z,8.88
2023-05-01T07:38:57.772Z,8.45
2023-05-01T07:41:24.285Z,8.00
2023-05-01T07:43:50.868Z,8.55
2023-05-01T07:46:17.467Z,8.57
2023-05-01T07:48:44.322Z,9.10
2023-05-01T07:51:10.942Z,8.52
2023-05-01T07:53:37.330Z,8.20
2023-05-01T07:56:10.286Z,7.75
2023-05-01T07:58:37.126Z,8.15
2023-05-01T08:01:04.292Z,8.20
2023-05-01T08:03:31.574Z,8.63
2023-05-01T08:05:58.782Z,8.57
2023-05-01T08:08:25.393Z,8.55
2023-05-01T08:10:52.818Z,8.30
2023-05-01T08:13:19.237Z,7.82
2023-05-01T08:15:46.848Z,7.55
2023-05-01T08:18:13.441Z,7.88
2023-05-01T08:20:39.868Z,8.27
2023-05-01T08:23:06.270Z,8.40
2023-05-01T08:25:33.306Z,8.77
2023-05-01T08:27:59.747Z,7.20
2023-05-01T08:30:26.219Z,9.05
2023-05-01T08:32:52.736Z,10.25
2023-05-01T08:35:19.191Z,8.32
2023-05-01T08:37:45.585Z,7.95
2023-05-01T08:40:12.377Z,8.30
2023-05-01T08:42:38.794Z,7.90
2023-05-01T08:45:09.664Z,7.28
2023-05-01T08:47:40.504Z,8.55
2023-05-01T08:50:10.744Z,8.88
2023-05-01T08:52:42.372Z,9.60
2023-05-01T08:55:20.301Z,8.85
2023-05-01T08:57:47.833Z,19.23
2023-05-01T09:00:18.214Z,14.35
2023-05-01T09:02:47.059Z,9.45
2023-05-01T09:05:16.057Z,6.97
2023-05-01T09:07:43.058Z,6.63
2023-05-01T09:10:13.745Z,7.00
2023-05-01T09:15:09.493Z,7.80
2023-05-01T09:17:36.853Z,7.68
2023-05-01T09:20:04.307Z,7.60
2023-05-01T09:22:32.013Z,7.30
2023-05-01T09:24:58.568Z,8.13
2023-05-01T09:27:28.251Z,7.65
2023-05-01T09:29:54.857Z,7.00
2023-05-01T09:32:26.282Z,7.47
2023-05-01T09:34:53.833Z,7.00
2023-05-01T09:37:31.777Z,9.02
2023-05-01T09:40:07.257Z,7.43
2023-05-01T09:42:35.888Z,8.35
2023-05-01T09:45:04.359Z,7.22
2023-05-01T09:47:31.125Z,7.43
2023-05-01T09:49:59.712Z,7.43
2023-05-01T09:52:27.397Z,7.78
2023-05-01T09:55:15.334Z,6.93
2023-05-01T09:57:43.444Z,7.68
2023-05-01T10:00:11.174Z,7.28
2023-05-01T10:02:39.012Z,6.75
2023-05-01T10:05:06.855Z,7.45
2023-05-01T10:07:33.657Z,6.70
2023-05-01T10:10:18.802Z,7.93
2023-05-01T10:12:45.350Z,8.10
2023-05-01T10:15:24.815Z,8.02
2023-05-01T10:17:53.634Z,7.50
2023-05-01T10:20:20.300Z,9.18
2023-05-01T10:22:46.785Z,8.02
2023-05-01T10:25:13.760Z,8.13
2023-05-01T10:27:41.406Z,8.27
2023-05-01T10:30:09.710Z,8.65
2023-05-01T10:32:37.934Z,8.05
2023-05-01T10:35:11.326Z,6.80
2023-05-01T10:38:07.803Z,7.85
2023-05-01T10:40:39.992Z,6.72
2023-05-01T10:43:14.109Z,7.25
2023-05-01T10:45:40.546Z,7.47
2023-05-01T10:48:07.071Z,7.88
2023-05-01T10:50:34.499Z,7.28
2023-05-01T10:53:09.966Z,6.45
2023-05-01T10:55:37.887Z,7.47
2023-05-01T10:58:04.567Z,5.75
2023-05-01T11:00:31.865Z,7.25
2023-05-01T11:03:22.894Z,6.20
2023-05-01T11:06:01.515Z,7.05
2023-05-01T11:08:36.381Z,5.97
2023-05-01T11:11:20.998Z,7.32
2023-05-01T11:14:00.232Z,7.25
2023-05-01T11:16:38.955Z,6.15
2023-05-01T11:19:07.314Z,6.32
2023-05-01T11:21:35.566Z,6.80
2023-05-01T11:24:05.468Z,7.00
2023-05-01T11:26:32.811Z,6.22
2023-05-01T11:29:00.696Z,6.50
2023-05-01T11:31:27.669Z,7.38
2023-05-01T11:33:58.553Z,5.70
2023-05-01T11:36:25.562Z,7.22
2023-05-01T11:38:53.489Z,6.10
2023-05-01T11:41:20.736Z,6.55
2023-05-01T11:43:58.692Z,7.10
2023-05-01T11:46:29.196Z,6.80
2023-05-01T11:51:25.983Z,7.05
2023-05-01T11:54:07.139Z,6.65
2023-05-01T11:56:35.082Z,6.40
2023-05-01T11:59:16.274Z,7.05
2023-05-01T12:01:45.263Z,6.80
2023-05-01T12:04:13.985Z,7.75
2023-05-01T12:06:42.820Z,7.05
2023-05-01T12:09:11.094Z,6.63
2023-05-01T12:11:39.636Z,5.90
2023-05-01T12:14:06.560Z,6.78
2023-05-01T12:16:33.577Z,6.43
2023-05-01T12:19:00.615Z,6.40
2023-05-01T12:21:27.138Z,7.93
2023-05-01T12:23:53.775Z,5.93
2023-05-01T12:26:23.855Z,6.97
2023-05-01T12:29:01.791Z,5.95
2023-05-01T12:31:29.479Z,6.78
2023-05-01T12:33:59.219Z,7.20
2023-05-01T12:36:27.903Z,7.30
2023-05-01T12:38:59.209Z,6.53
2023-05-01T12:41:41.233Z,6.40
2023-05-01T12:44:25.537Z,6.63
2023-05-01T12:46:59.078Z,6.95
2023-05-01T12:49:26.632Z,6.97
2023-05-01T12:51:55.171Z,7.45
2023-05-01T12:54:43.304Z,8.43
2023-05-01T12:57:10.859Z,7.10
2023-05-01T12:59:39.781Z,7.97
2023-05-01T13:02:08.650Z,7.35
2023-05-01T13:04:35.598Z,7.55
2023-05-01T13:07:02.384Z,7.45
2023-05-01T13:09:29.901Z,7.13
2023-05-01T13:11:58.527Z,6.72
2023-05-01T13:14:25.574Z,7.28
2023-05-01T13:16:52.746Z,7.55
2023-05-01T13:19:26.898Z,7.63
2023-05-01T13:21:53.366Z,7.60
2023-05-01T13:24:19.864Z,5.93
2023-05-01T13:26:46.362Z,6.28
2023-05-01T13:29:15.707Z,7.38
2023-05-01T13:31:45.786Z,7.40
2023-05-01T13:34:17.276Z,6.80
2023-05-01T13:36:43.746Z,6.05
2023-05-01T13:39:11.537Z,6.50
2023-05-01T13:41:42.265Z,6.90
2023-05-01T13:44:08.743Z,7.20
2023-05-01T13:46:36.319Z,7.28
2023-05-01T13:49:06.184Z,7.75
2023-05-01T13:51:32.641Z,8.00
2023-05-01T13:53:59.136Z,8.18
2023-05-01T13:56:25.963Z,7.00
2023-05-01T13:58:52.704Z,8.98
2023-05-01T14:01:21.969Z,8.60
2023-05-01T14:03:49.612Z,7.90
2023-05-01T14:06:17.918Z,7.18
2023-05-01T14:08:46.098Z,8.02
2023-05-01T14:11:13.141Z,7.47
2023-05-01T14:13:47.364Z,7.65
2023-05-01T14:16:28.094Z,8.98
2023-05-01T14:21:23.512Z,9.73
2023-05-01T14:23:51.975Z,9.70
2023-05-01T14:26:19.589Z,9.25
2023-05-01T14:28:47.049Z,9.68
2023-05-01T14:31:24.835Z,10.13
2023-05-01T14:33:55.871Z,10.23
2023-05-01T14:36:23.786Z,10.57
2023-05-01T14:38:51.258Z,12.00
2023-05-01T14:41:17.804Z,12.30
2023-05-01T14:43:44.629Z,12.45
2023-05-01T14:46:30.050Z,13.15
2023-05-01T14:48:57.004Z,10.88
2023-05-01T14:51:23.498Z,10.80
2023-05-01T14:53:49.849Z,13.15
2023-05-01T14:56:16.814Z,12.65
2023-05-01T14:58:43.261Z,13.23
2023-05-01T15:01:10.057Z,11.10
2023-05-01T15:03:37.728Z,11.65
2023-05-01T15:06:04.425Z,13.10
2023-05-01T15:08:31.082Z,13.25
2023-05-01T15:10:57.506Z,11.93
2023-05-01T15:13:23.823Z,12.90
2023-05-01T15:15:50.634Z,13.13
2023-05-01T15:18:17.372Z,12.23
2023-05-01T15:20:43.898Z,14.02
2023-05-01T15:23:10.288Z,13.35
2023-05-01T15:25:37.021Z,13.55
2023-05-01T15:28:03.824Z,13.98
2023-05-01T15:30:30.345Z,14.38
2023-05-01T15:32:56.854Z,13.40
2023-05-01T15:35:23.714Z,13.40
2023-05-01T15:37:50.140Z,13.95
2023-05-01T15:40:16.718Z,14.55
2023-05-01T15:42:43.610Z,13.52
2023-05-01T15:45:10.494Z,13.70
2023-05-01T15:47:37.028Z,10.90
2023-05-01T15:50:03.725Z,10.45
2023-05-01T15:52:30.247Z,11.60
2023-05-01T15:54:56.727Z,11.13
2023-05-01T15:57:23.173Z,10.80
2023-05-01T15:59:49.666Z,10.70
2023-05-01T16:02:16.070Z,11.90
2023-05-01T16:04:46.032Z,11.35
2023-05-01T16:07:12.927Z,11.68
2023-05-01T16:09:39.321Z,11.65
2023-05-01T16:12:07.143Z,12.65
2023-05-01T16:14:39.574Z,10.60
2023-05-01T16:17:06.185Z,12.35
2023-05-01T16:19:32.803Z,12.43
2023-05-01T16:22:05.926Z,13.20
2023-05-01T16:24:33.300Z,11.52
2023-05-01T16:26:59.916Z,10.73
2023-05-01T16:29:26.584Z,9.93
2023-05-01T16:31:53.367Z,10.50
2023-05-01T16:34:24.454Z,11.18
2023-05-01T16:36:50.927Z,11.13
2023-05-01T16:39:19.525Z,10.38
2023-05-01T16:41:50.578Z,11.15
2023-05-01T16:44:18.670Z,10.43
2023-05-01T16:46:53.693Z,10.65
2023-05-01T16:49:21.055Z,11.10
2023-05-01T16:51:47.806Z,9.38
2023-05-01T16:54:15.604Z,10.27
2023-05-01T16:56:42.115Z,11.18
2023-05-01T16:59:08.676Z,11.48
2023-05-01T17:01:35.199Z,10.77
2023-05-01T17:04:01.738Z,12.43
2023-05-01T17:06:28.274Z,10.85
2023-05-01T17:08:54.708Z,11.50
2023-05-01T17:11:21.717Z,9.90
2023-05-01T17:13:48.244Z,10.55
2023-05-01T17:16:15.098Z,11.15
2023-05-01T17:18:41.974Z,8.93
2023-05-01T17:21:08.310Z,9.60
2023-05-01T17:23:35.019Z,11.27
2023-05-01T17:26:01.807Z,10.43
2023-05-01T17:28:28.139Z,10.93
2023-05-01T17:30:54.558Z,11.57
2023-05-01T17:33:21.560Z,10.85
2023-05-01T17:35:48.131Z,10.50
2023-05-01T17:38:14.511Z,10.07
2023-05-01T17:40:41.009Z,11.57
2023-05-01T17:43:07.905Z,12.25
2023-05-01T17:45:34.585Z,10.93
2023-05-01T17:48:01.069Z,11.65
2023-05-01T17:50:27.524Z,11.60
2023-05-01T17:52:56.323Z,11.02
2023-05-01T17:55:22.782Z,11.25
2023-05-01T17:57:49.566Z,11.48
2023-05-01T18:00:16.633Z,11.27
2023-05-01T18:02:43.690Z,11.68
2023-05-01T18:05:10.503Z,11.25
2023-05-01T18:07:37.417Z,12.00
2023-05-01T18:10:04.667Z,11.45
2023-05-01T18:12:31.162Z,11.55
2023-05-01T18:14:57.923Z,10.57
2023-05-01T18:17:24.533Z,12.55
2023-05-01T18:19:51.039Z,12.02
2023-05-01T18:22:17.834Z,11.80
2023-05-01T18:24:44.562Z,10.32
2023-05-01T18:27:12.182Z,11.27
2023-05-01T18:29:39.697Z,11.15
2023-05-01T18:32:07.040Z,12.00
2023-05-01T18:34:35.875Z,11.95
2023-05-01T18:37:02.734Z,12.23
2023-05-01T18:39:31.402Z,14.02
2023-05-01T18:41:57.877Z,12.80
2023-05-01T18:44:24.373Z,11.75
2023-05-01T18:46:51.144Z,12.27
2023-05-01T18:49:19.692Z,11.80
2023-05-01T18:51:46.500Z,10.40
2023-05-01T18:54:12.981Z,10.80
2023-05-01T18:56:39.442Z,11.90
2023-05-01T18:59:05.886Z,12.10
2023-05-01T19:01:33.493Z,11.55
2023-05-01T19:04:08.296Z,11.88
2023-05-01T19:06:35.773Z,13.43
2023-05-01T19:09:02.393Z,12.32
2023-05-01T19:11:28.934Z,12.30
2023-05-01T19:13:55.424Z,10.75
2023-05-01T19:16:22.279Z,12.60
2023-05-01T19:18:48.911Z,11.85
2023-05-01T19:21:15.334Z,11.77
2023-05-01T19:23:46.118Z,11.20
2023-05-01T19:28:38.925Z,11.93
2023-05-01T19:31:05.369Z,10.50
2023-05-01T19:33:31.781Z,12.05
2023-05-01T19:36:00.144Z,11.90
2023-05-01T19:38:26.546Z,12.77
2023-05-01T19:40:52.961Z,11.25
2023-05-01T19:43:19.382Z,12.52
2023-05-01T19:45:45.777Z,12.95
2023-05-01T19:48:12.302Z,13.45
2023-05-01T19:50:38.934Z,13.13
2023-05-01T19:53:05.429Z,12.75
2023-05-01T19:55:36.513Z,16.98
2023-05-01T19:58:03.419Z,18.10
2023-05-01T20:00:29.770Z,14.70
2023-05-01T20:02:56.276Z,14.90
2023-05-01T20:05:22.871Z,13.95
2023-05-01T20:07:49.251Z,12.73
2023-05-01T20:10:15.877Z,12.35
2023-05-01T20:12:42.597Z,11.85
2023-05-01T20:15:09.729Z,11.10
2023-05-01T20:17:38.848Z,11.32
2023-05-01T20:20:07.129Z,12.15
2023-05-01T20:22:34.856Z,11.07
2023-05-01T20:25:01.863Z,10.55
2023-05-01T20:27:29.797Z,10.93
2023-05-01T20:30:00.475Z,11.75
2023-05-01T20:32:27.218Z,11.70
2023-05-01T20:34:54.723Z,10.77
2023-05-01T20:37:23.377Z,11.10
2023-05-01T20:39:50.188Z,10.45
2023-05-01T20:42:18.948Z,11.77
2023-05-01T20:44:45.382Z,14.15
2023-05-01T20:47:11.926Z,11.68
2023-05-01T20:49:38.612Z,10.95
2023-05-01T20:52:06.357Z,10.18
2023-05-01T20:54:33.001Z,9.63
2023-05-01T20:56:59.797Z,7.63
2023-05-01T20:59:26.197Z,9.18
2023-05-01T21:01:52.975Z,9.07
2023-05-01T21:04:19.427Z,8.73
2023-05-01T21:06:45.970Z,9.27
2023-05-01T21:09:12.357Z,8.73
2023-05-01T21:11:41.990Z,9.18
2023-05-01T21:14:08.719Z,8.10
2023-05-01T21:16:35.998Z,8.18
2023-05-01T21:19:02.506Z,8.57
2023-05-01T21:21:28.947Z,8.70
2023-05-01T21:23:55.431Z,7.90
2023-05-01T21:26:21.944Z,8.77
2023-05-01T21:28:48.713Z,9.05
2023-05-01T21:31:16.174Z,7.90
2023-05-01T21:33:45.986Z,8.20
2023-05-01T21:36:17.446Z,7.88
2023-05-01T21:38:47.283Z,7.82
2023-05-01T21:41:16.971Z,8.63
2023-05-01T21:43:46.317Z,8.45
2023-05-01T21:46:19.653Z,7.70
2023-05-01T21:48:51.335Z,7.78
2023-05-01T21:51:18.281Z,7.68
2023-05-01T21:53:45.073Z,8.38
2023-05-01T21:56:14.068Z,8.55
2023-05-01T21:58:40.815Z,7.97
2023-05-01T22:01:07.510Z,7.28
2023-05-01T22:03:39.129Z,7.20
2023-05-01T22:06:05.621Z,8.25
2023-05-01T22:08:32.325Z,8.57
2023-05-01T22:10:58.861Z,8.30
2023-05-01T22:13:25.404Z,8.13
2023-05-01T22:15:51.807Z,8.70
2023-05-01T22:18:19.020Z,7.55
2023-05-01T22:20:45.595Z,8.73
2023-05-01T22:23:11.951Z,7.75
2023-05-01T22:25:38.770Z,7.97
2023-05-01T22:28:05.507Z,8.65
2023-05-01T22:30:32.828Z,8.52
2023-05-01T22:32:59.166Z,7.72
2023-05-01T22:35:25.793Z,8.32
2023-05-01T22:37:53.156Z,7.88
2023-05-01T22:40:19.543Z,8.30
2023-05-01T22:42:46.012Z,7.90
2023-05-01T22:45:12.639Z,6.93
2023-05-01T22:47:39.021Z,7.63
2023-05-01T22:50:06.403Z,8.90
2023-05-01T22:52:32.842Z,7.25
2023-05-01T22:54:59.476Z,7.40
2023-05-01T22:57:25.943Z,7.40
2023-05-01T22:59:53.609Z,8.30
2023-05-01T23:02:20.663Z,7.85
2023-05-01T23:04:48.299Z,7.43
2023-05-01T23:07:15.014Z,7.43
2023-05-01T23:09:41.721Z,7.10
2023-05-01T23:12:17.852Z,7.30
2023-05-01T23:14:46.143Z,8.20
2023-05-01T23:17:17.792Z,7.90
2023-05-01T23:19:45.900Z,7.25
2023-05-01T23:22:12.612Z,6.70
2023-05-01T23:24:43.972Z,7.70
2023-05-01T23:27:11.922Z,7.30
2023-05-01T23:29:40.244Z,7.88
2023-05-01T23:32:18.550Z,7.40
2023-05-01T23:34:44.948Z,7.13
2023-05-01T23:37:11.308Z,7.85
2023-05-01T23:39:38.907Z,8.32
2023-05-01T23:42:05.437Z,8.20
2023-05-01T23:44:31.890Z,7.82
2023-05-01T23:46:58.405Z,8.27
2023-05-01T23:49:31.622Z,7.60
2023-05-01T23:51:58.328Z,7.63
2023-05-01T23:54:24.833Z,7.60
2023-05-01T23:56:51.314Z,7.45
2023-05-01T23:59:17.727Z,7.93
